Time;durP1;ratioP1;P1;durP2;ratioP2;P2;SDS_P1;SDS_P2;PMS_P1;PMS_P2;Temp;Humidity;BMP_temperature;BMP_pressure;BME280_temperature;BME280_humidity;BME280_pressure;Samples;Min_cycle;Max_cycle;Signal;HPM_P1;HPM_P2
2021/08/10 00:01:35;;;;;;;2.58;1.30;;;;;;;;;;4922016;28;20038;-91
2021/08/10 00:04:02;;;;;;;2.38;1.40;;;;;;;;;;4956749;28;20039;-92
2021/08/10 00:06:29;;;;;;;3.38;1.55;;;;;;;;;;4950498;28;20031;-90
2021/08/10 00:08:55;;;;;;;3.40;1.48;;;;;;;;;;4901334;29;20043;-90
2021/08/10 00:11:22;;;;;;;2.92;1.45;;;;;;;;;;4918490;29;20043;-90
2021/08/10 00:13:48;;;;;;;2.35;1.45;;;;;;;;;;4931782;29;20427;-86
2021/08/10 00:16:16;;;;;;;2.17;1.50;;;;;;;;;;4948884;28;20043;-86
2021/08/10 00:18:43;;;;;;;2.30;1.50;;;;;;;;;;4941938;29;20035;-87
2021/08/10 00:21:10;;;;;;;3.15;1.73;;;;;;;;;;4929920;29;20062;-89
2021/08/10 00:23:38;;;;;;;3.13;1.42;;;;;;;;;;4935719;29;20557;-88
2021/08/10 00:26:04;;;;;;;2.53;1.48;;;;;;;;;;4903686;29;20119;-90
2021/08/10 00:28:33;;;;;;;3.25;1.42;;;;;;;;;;4946406;28;20575;-84
2021/08/10 00:31:00;;;;;;;2.78;1.67;;;;;;;;;;4940398;28;20129;-84
2021/08/10 00:33:26;;;;;;;2.63;1.50;;;;;;;;;;4927732;29;20039;-84
2021/08/10 00:35:53;;;;;;;2.05;1.48;;;;;;;;;;4914638;29;20105;-85
2021/08/10 00:38:19;;;;;;;3.03;1.52;;;;;;;;;;4937697;28;20448;-84
2021/08/10 00:40:46;;;;;;;2.83;1.40;;;;;;;;;;4937936;28;20098;-84
2021/08/10 00:43:30;;;;;;;2.15;1.50;;;;;;;;;;4928683;29;20035;-84
2021/08/10 00:45:58;;;;;;;3.10;1.90;;;;;;;;;;4923466;29;20067;-85
2021/08/10 00:48:24;;;;;;;3.30;1.85;;;;;;;;;;4941355;28;20086;-89
2021/08/10 00:50:51;;;;;;;2.72;1.60;;;;;;;;;;4927560;29;20507;-88
2021/08/10 00:53:18;;;;;;;2.00;1.30;;;;;;;;;;4930374;28;20059;-88
2021/08/10 00:55:46;;;;;;;2.30;1.50;;;;;;;;;;4911883;29;20083;-88
2021/08/10 00:58:14;;;;;;;3.85;1.50;;;;;;;;;;4927569;29;20038;-88
2021/08/10 01:00:41;;;;;;;2.13;1.60;;;;;;;;;;4923424;28;20046;-88
2021/08/10 01:03:07;;;;;;;2.67;1.50;;;;;;;;;;4946057;28;20440;-86
2021/08/10 01:05:35;;;;;;;2.03;1.50;;;;;;;;;;4950633;28;20102;-86
2021/08/10 01:08:12;;;;;;;2.88;1.77;;;;;;;;;;4938457;29;20118;-87
2021/08/10 01:10:44;;;;;;;4.93;1.85;;;;;;;;;;4945048;28;20032;-86
2021/08/10 01:13:17;;;;;;;2.53;1.55;;;;;;;;;;4952042;29;20063;-85
2021/08/10 01:15:47;;;;;;;2.60;1.40;;;;;;;;;;4932632;29;20074;-85
2021/08/10 01:18:20;;;;;;;2.05;1.50;;;;;;;;;;4942200;28;20490;-87
2021/08/10 01:20:47;;;;;;;3.05;1.83;;;;;;;;;;4945254;28;20027;-85
2021/08/10 01:23:16;;;;;;;3.55;1.80;;;;;;;;;;4920760;29;20043;-87
2021/08/10 01:26:03;;;;;;;3.10;1.70;;;;;;;;;;4923397;29;20043;-83
2021/08/10 01:28:48;;;;;;;3.42;1.70;;;;;;;;;;4921355;29;20118;-86
2021/08/10 01:31:28;;;;;;;2.92;1.70;;;;;;;;;;4940551;28;20457;-87
2021/08/10 01:34:16;;;;;;;3.33;1.60;;;;;;;;;;4948618;28;20391;-89
2021/08/10 01:36:44;;;;;;;2.30;1.80;;;;;;;;;;4904049;29;20043;-90
2021/08/10 01:39:10;;;;;;;2.42;1.63;;;;;;;;;;4910861;29;20769;-89
2021/08/10 01:41:37;;;;;;;3.65;1.80;;;;;;;;;;4927310;29;20075;-89
2021/08/10 01:44:05;;;;;;;3.15;1.73;;;;;;;;;;4948019;28;20110;-89
2021/08/10 01:46:33;;;;;;;3.08;1.60;;;;;;;;;;4930800;28;20035;-89
2021/08/10 01:49:00;;;;;;;3.25;1.50;;;;;;;;;;4915839;28;20443;-89
2021/08/10 01:51:28;;;;;;;2.92;1.80;;;;;;;;;;4947061;28;20121;-89
2021/08/10 01:53:55;;;;;;;2.58;1.85;;;;;;;;;;4916104;29;20645;-89
2021/08/10 01:56:23;;;;;;;2.17;1.55;;;;;;;;;;4914922;29;20046;-89
2021/08/10 01:58:51;;;;;;;16.05;3.15;;;;;;;;;;4925498;29;20067;-89
2021/08/10 02:01:19;;;;;;;2.88;1.60;;;;;;;;;;4949949;28;20031;-89
2021/08/10 02:03:46;;;;;;;3.90;1.60;;;;;;;;;;4914140;29;20489;-89
2021/08/10 02:06:14;;;;;;;2.58;1.50;;;;;;;;;;4921280;29;20114;-89
2021/08/10 02:08:41;;;;;;;2.40;1.50;;;;;;;;;;4930314;29;20035;-89
2021/08/10 02:11:08;;;;;;;2.03;1.60;;;;;;;;;;4942130;29;20109;-89
2021/08/10 02:13:35;;;;;;;1.85;1.48;;;;;;;;;;4942993;28;20062;-88
2021/08/10 02:16:02;;;;;;;4.05;1.88;;;;;;;;;;4917348;29;20039;-87
2021/08/10 02:18:29;;;;;;;2.97;1.73;;;;;;;;;;4913589;29;20106;-87
2021/08/10 02:20:58;;;;;;;2.92;1.70;;;;;;;;;;4916088;29;20043;-87
2021/08/10 02:23:25;;;;;;;2.75;1.60;;;;;;;;;;4942076;28;20063;-86
2021/08/10 02:25:54;;;;;;;2.17;1.70;;;;;;;;;;4928519;29;20058;-85
2021/08/10 02:28:22;;;;;;;3.17;1.60;;;;;;;;;;4926934;29;20067;-85
2021/08/10 02:30:52;;;;;;;3.33;1.63;;;;;;;;;;4941088;28;20088;-85
2021/08/10 02:33:20;;;;;;;2.45;1.70;;;;;;;;;;4907812;29;20098;-86
2021/08/10 02:35:48;;;;;;;3.88;1.90;;;;;;;;;;4941731;28;20149;-88
2021/08/10 02:38:16;;;;;;;2.65;1.65;;;;;;;;;;4946541;29;20432;-88
2021/08/10 02:40:45;;;;;;;3.55;1.58;;;;;;;;;;4927046;29;20117;-88
2021/08/10 02:43:12;;;;;;;2.22;1.50;;;;;;;;;;4935172;29;20130;-87
2021/08/10 02:45:39;;;;;;;2.97;1.73;;;;;;;;;;4943047;29;20054;-86
2021/08/10 02:48:06;;;;;;;2.30;1.45;;;;;;;;;;4939203;29;20230;-84
2021/08/10 02:50:33;;;;;;;2.40;1.73;;;;;;;;;;4927116;29;20067;-84
2021/08/10 02:53:00;;;;;;;3.17;1.70;;;;;;;;;;4926283;29;20070;-85
2021/08/10 02:55:27;;;;;;;1.90;1.40;;;;;;;;;;4939286;28;20087;-85
2021/08/10 02:58:10;;;;;;;3.25;1.52;;;;;;;;;;4935944;28;20081;-85
2021/08/10 03:00:41;;;;;;;2.63;1.75;;;;;;;;;;4939877;28;20071;-85
2021/08/10 03:03:13;;;;;;;3.30;1.70;;;;;;;;;;4915143;28;20032;-88
2021/08/10 03:05:41;;;;;;;3.42;1.70;;;;;;;;;;4946923;28;20055;-89
2021/08/10 03:08:08;;;;;;;4.75;1.60;;;;;;;;;;4908120;29;20055;-90
2021/08/10 03:10:38;;;;;;;3.90;1.50;;;;;;;;;;4941433;28;20055;-90
2021/08/10 03:13:06;;;;;;;2.20;1.55;;;;;;;;;;4926518;28;20071;-88
2021/08/10 03:15:33;;;;;;;3.20;1.70;;;;;;;;;;4931444;29;20070;-89
2021/08/10 03:18:07;;;;;;;2.45;1.67;;;;;;;;;;4933782;28;20067;-90
2021/08/10 03:20:34;;;;;;;3.83;1.63;;;;;;;;;;4929316;29;20058;-90
2021/08/10 03:23:02;;;;;;;2.47;1.70;;;;;;;;;;4944444;28;20820;-89
2021/08/10 03:25:28;;;;;;;3.80;1.70;;;;;;;;;;4937769;28;20180;-88
2021/08/10 03:27:56;;;;;;;2.80;1.60;;;;;;;;;;4933560;28;20063;-88
2021/08/10 03:30:24;;;;;;;2.67;1.90;;;;;;;;;;4920069;29;20051;-86
2021/08/10 03:32:51;;;;;;;2.97;1.73;;;;;;;;;;4907285;28;20059;-88
2021/08/10 03:35:20;;;;;;;3.28;1.92;;;;;;;;;;4912770;29;20039;-84
2021/08/10 03:37:47;;;;;;;1.98;1.55;;;;;;;;;;4929437;29;20125;-84
2021/08/10 03:40:13;;;;;;;2.13;1.60;;;;;;;;;;4940012;29;20554;-85
2021/08/10 03:42:40;;;;;;;2.35;1.73;;;;;;;;;;4943314;28;20160;-85
2021/08/10 03:45:08;;;;;;;3.65;1.63;;;;;;;;;;4912127;28;20063;-85
2021/08/10 03:47:37;;;;;;;3.17;1.77;;;;;;;;;;4941628;29;20063;-84
2021/08/10 03:50:04;;;;;;;2.95;1.40;;;;;;;;;;4928756;29;22345;-82
2021/08/10 03:52:30;;;;;;;2.88;1.65;;;;;;;;;;4929117;29;20066;-83
2021/08/10 03:54:57;;;;;;;2.45;1.70;;;;;;;;;;4932415;28;20043;-83
2021/08/10 03:57:23;;;;;;;3.35;1.70;;;;;;;;;;4938327;28;20502;-83
2021/08/10 03:59:51;;;;;;;1.77;1.52;;;;;;;;;;4934187;28;20071;-83
2021/08/10 04:02:18;;;;;;;3.03;1.85;;;;;;;;;;4936008;28;20055;-84
2021/08/10 04:04:45;;;;;;;2.60;1.75;;;;;;;;;;4933626;28;20129;-83
2021/08/10 04:07:12;;;;;;;2.92;1.70;;;;;;;;;;4938536;29;20052;-84
2021/08/10 04:09:38;;;;;;;2.22;1.50;;;;;;;;;;4943318;28;20048;-84
2021/08/10 04:12:06;;;;;;;3.05;1.60;;;;;;;;;;4923704;29;20062;-82
2021/08/10 04:14:34;;;;;;;2.47;1.58;;;;;;;;;;4936085;29;20040;-82
2021/08/10 04:17:02;;;;;;;2.15;1.55;;;;;;;;;;4931063;28;20099;-81
2021/08/10 04:19:33;;;;;;;2.35;1.40;;;;;;;;;;4938456;28;20401;-82
2021/08/10 04:22:00;;;;;;;3.03;1.30;;;;;;;;;;4942899;28;20083;-82
2021/08/10 04:24:26;;;;;;;1.88;1.50;;;;;;;;;;4944816;28;20067;-83
2021/08/10 04:26:53;;;;;;;4.45;1.70;;;;;;;;;;4926846;28;20070;-85
2021/08/10 04:29:21;;;;;;;2.55;1.60;;;;;;;;;;4928930;29;20073;-81
2021/08/10 04:31:48;;;;;;;2.08;1.20;;;;;;;;;;4936124;28;20068;-84
2021/08/10 04:34:14;;;;;;;2.70;1.23;;;;;;;;;;4933572;28;20059;-84
2021/08/10 04:36:41;;;;;;;2.38;1.63;;;;;;;;;;4930892;29;20070;-87
2021/08/10 04:39:08;;;;;;;3.10;1.27;;;;;;;;;;4912610;29;20775;-84
2021/08/10 04:41:34;;;;;;;2.30;1.50;;;;;;;;;;4929819;29;20039;-86
2021/08/10 04:44:00;;;;;;;2.13;1.48;;;;;;;;;;4903857;28;20075;-90
2021/08/10 04:46:28;;;;;;;2.03;1.50;;;;;;;;;;4914333;28;20496;-89
2021/08/10 04:48:54;;;;;;;4.10;1.77;;;;;;;;;;4933557;29;20043;-86
2021/08/10 04:51:21;;;;;;;3.45;1.90;;;;;;;;;;4944183;28;20062;-91
2021/08/10 04:53:48;;;;;;;3.78;1.58;;;;;;;;;;4936576;29;20126;-88
2021/08/10 04:56:14;;;;;;;2.67;1.60;;;;;;;;;;4923102;29;20475;-90
2021/08/10 04:58:41;;;;;;;4.03;1.58;;;;;;;;;;4940392;29;20043;-90
2021/08/10 05:01:07;;;;;;;4.45;1.88;;;;;;;;;;4933148;28;20823;-89
2021/08/10 05:03:33;;;;;;;4.00;1.52;;;;;;;;;;4928164;29;20475;-87
2021/08/10 05:06:00;;;;;;;3.22;1.55;;;;;;;;;;4911646;29;20063;-87
2021/08/10 05:08:26;;;;;;;5.60;1.80;;;;;;;;;;4928597;29;20066;-86
2021/08/10 05:10:54;;;;;;;2.15;1.35;;;;;;;;;;4915397;29;20118;-86
2021/08/10 05:13:20;;;;;;;2.97;1.65;;;;;;;;;;4936188;28;20082;-87
2021/08/10 05:15:48;;;;;;;2.20;1.58;;;;;;;;;;4925645;29;20082;-86
2021/08/10 05:18:14;;;;;;;2.75;1.50;;;;;;;;;;4924830;29;20478;-83
2021/08/10 05:20:41;;;;;;;6.47;1.85;;;;;;;;;;4926493;29;20146;-83
2021/08/10 05:23:07;;;;;;;2.83;1.65;;;;;;;;;;4939780;28;20083;-83
2021/08/10 05:25:34;;;;;;;1.95;1.25;;;;;;;;;;4933157;29;20102;-83
2021/08/10 05:28:00;;;;;;;2.50;1.27;;;;;;;;;;4936551;29;20486;-83
2021/08/10 05:30:27;;;;;;;2.47;1.40;;;;;;;;;;4931892;28;20059;-83
2021/08/10 05:32:53;;;;;;;3.92;1.67;;;;;;;;;;4936390;28;20142;-83
2021/08/10 05:35:19;;;;;;;2.97;1.50;;;;;;;;;;4929445;29;20059;-83
2021/08/10 05:37:46;;;;;;;1.98;1.00;;;;;;;;;;4910112;29;20090;-84
2021/08/10 05:40:13;;;;;;;2.33;1.40;;;;;;;;;;4931324;29;20112;-83
2021/08/10 05:42:39;;;;;;;1.42;1.00;;;;;;;;;;4937909;28;20051;-84
2021/08/10 05:45:06;;;;;;;3.35;1.75;;;;;;;;;;4935539;28;20075;-83
2021/08/10 05:47:32;;;;;;;3.70;2.00;;;;;;;;;;4941347;28;20059;-83
2021/08/10 05:50:02;;;;;;;3.85;2.15;;;;;;;;;;4924564;29;20122;-83
2021/08/10 05:52:28;;;;;;;2.53;1.77;;;;;;;;;;4929856;29;20075;-83
2021/08/10 05:54:55;;;;;;;3.10;1.80;;;;;;;;;;4935249;28;20566;-83
2021/08/10 05:57:23;;;;;;;3.60;2.00;;;;;;;;;;4943553;29;20070;-83
2021/08/10 05:59:49;;;;;;;4.13;1.95;;;;;;;;;;4916411;29;20059;-83
2021/08/10 06:02:16;;;;;;;4.82;2.30;;;;;;;;;;4928082;28;20109;-83
2021/08/10 06:04:42;;;;;;;3.47;1.40;;;;;;;;;;4913348;28;20094;-83
2021/08/10 06:07:09;;;;;;;5.95;2.20;;;;;;;;;;4941670;28;20464;-83
2021/08/10 06:09:35;;;;;;;3.95;2.10;;;;;;;;;;4930387;29;20575;-83
2021/08/10 06:12:01;;;;;;;2.20;1.60;;;;;;;;;;4941096;28;20036;-83
2021/08/10 06:14:31;;;;;;;4.22;1.95;;;;;;;;;;4925792;29;20129;-83
2021/08/10 06:16:57;;;;;;;3.58;2.28;;;;;;;;;;4918779;29;20035;-84
2021/08/10 06:19:24;;;;;;;5.47;2.05;;;;;;;;;;4936268;28;20503;-83
2021/08/10 06:21:52;;;;;;;2.55;1.85;;;;;;;;;;4913521;29;20051;-83
2021/08/10 06:24:18;;;;;;;4.07;2.17;;;;;;;;;;4926063;29;20055;-82
2021/08/10 06:26:45;;;;;;;3.42;2.20;;;;;;;;;;4914477;29;20055;-83
2021/08/10 06:29:11;;;;;;;3.13;1.98;;;;;;;;;;4939990;29;20545;-83
2021/08/10 06:31:38;;;;;;;4.10;2.20;;;;;;;;;;4929382;28;20071;-82
2021/08/10 06:34:04;;;;;;;4.63;2.13;;;;;;;;;;4945129;28;20519;-82
2021/08/10 06:36:31;;;;;;;3.45;2.10;;;;;;;;;;4942349;28;20702;-81
2021/08/10 06:38:57;;;;;;;4.75;2.20;;;;;;;;;;4944505;28;20527;-82
2021/08/10 06:41:23;;;;;;;3.78;2.20;;;;;;;;;;4925069;29;20112;-81
2021/08/10 06:43:50;;;;;;;3.78;2.20;;;;;;;;;;4927535;29;20039;-82
2021/08/10 06:46:16;;;;;;;4.55;2.30;;;;;;;;;;4946407;29;20039;-82
2021/08/10 06:48:43;;;;;;;4.53;2.60;;;;;;;;;;4916094;29;20110;-82
2021/08/10 06:51:09;;;;;;;5.22;2.60;;;;;;;;;;4933773;29;20055;-83
2021/08/10 06:53:36;;;;;;;3.53;2.17;;;;;;;;;;4936270;28;20067;-83
2021/08/10 06:56:02;;;;;;;3.80;2.00;;;;;;;;;;4940298;28;20040;-83
2021/08/10 06:58:29;;;;;;;3.15;2.10;;;;;;;;;;4926587;29;20098;-83
2021/08/10 07:00:55;;;;;;;6.00;2.80;;;;;;;;;;4926694;29;20100;-82
2021/08/10 07:03:22;;;;;;;3.20;2.13;;;;;;;;;;4935058;28;20079;-83
2021/08/10 07:05:48;;;;;;;4.10;2.35;;;;;;;;;;4927436;29;20070;-81
2021/08/10 07:08:15;;;;;;;3.30;2.38;;;;;;;;;;4926124;29;20134;-82
2021/08/10 07:10:41;;;;;;;3.22;1.80;;;;;;;;;;4928573;29;20573;-82
2021/08/10 07:13:08;;;;;;;3.35;2.20;;;;;;;;;;4913735;28;20121;-83
2021/08/10 07:15:34;;;;;;;3.97;2.20;;;;;;;;;;4914603;29;20452;-82
2021/08/10 07:18:01;;;;;;;4.03;2.03;;;;;;;;;;4928412;28;20066;-82
2021/08/10 07:20:29;;;;;;;3.35;2.13;;;;;;;;;;4944450;28;20085;-83
2021/08/10 07:22:55;;;;;;;4.15;2.35;;;;;;;;;;4926552;28;20055;-85
2021/08/10 07:25:22;;;;;;;4.75;2.45;;;;;;;;;;4942633;29;20035;-89
2021/08/10 07:27:48;;;;;;;3.05;1.98;;;;;;;;;;4931213;28;20083;-90
2021/08/10 07:30:15;;;;;;;2.47;1.65;;;;;;;;;;4938332;29;20038;-93
2021/08/10 07:32:41;;;;;;;4.80;1.98;;;;;;;;;;4959993;28;20510;-92
2021/08/10 07:35:09;;;;;;;3.97;2.35;;;;;;;;;;4932893;29;20047;-91
2021/08/10 07:37:41;;;;;;;4.15;2.40;;;;;;;;;;4918316;29;20101;-92
2021/08/10 07:40:08;;;;;;;3.92;2.08;;;;;;;;;;4928340;28;20063;-89
2021/08/10 07:42:35;;;;;;;3.10;2.00;;;;;;;;;;4953390;28;20035;-85
2021/08/10 07:45:01;;;;;;;4.10;2.38;;;;;;;;;;4917807;29;20523;-86
2021/08/10 07:47:28;;;;;;;5.07;2.53;;;;;;;;;;4950098;28;20046;-84
2021/08/10 07:49:54;;;;;;;5.53;2.65;;;;;;;;;;4947775;28;20086;-86
2021/08/10 07:52:20;;;;;;;4.55;2.45;;;;;;;;;;4948284;29;20031;-92
2021/08/10 07:54:47;;;;;;;3.88;2.08;;;;;;;;;;4946026;29;20043;-91
2021/08/10 07:57:15;;;;;;;3.55;1.90;;;;;;;;;;4947145;28;20055;-92
2021/08/10 07:59:41;;;;;;;6.20;2.40;;;;;;;;;;4951953;28;20042;-91
2021/08/10 08:02:08;;;;;;;4.40;2.15;;;;;;;;;;4947873;28;20043;-93
2021/08/10 08:04:36;;;;;;;3.78;1.60;;;;;;;;;;4946731;28;20031;-89
2021/08/10 08:07:03;;;;;;;6.47;3.13;;;;;;;;;;4926755;29;20043;-76
2021/08/10 08:09:29;;;;;;;5.20;2.67;;;;;;;;;;4940683;29;20059;-75
2021/08/10 08:11:56;;;;;;;6.80;2.65;;;;;;;;;;4935609;28;20152;-76
2021/08/10 08:14:23;;;;;;;4.95;2.42;;;;;;;;;;4938852;28;20055;-76
2021/08/10 08:16:50;;;;;;;6.15;2.70;;;;;;;;;;4934211;29;20536;-75
2021/08/10 08:19:16;;;;;;;5.57;2.65;;;;;;;;;;4935026;28;20708;-76
2021/08/10 08:21:43;;;;;;;5.88;2.55;;;;;;;;;;4938207;28;20119;-76
2021/08/10 08:24:09;;;;;;;6.57;2.70;;;;;;;;;;4937795;29;20057;-76
2021/08/10 08:26:36;;;;;;;5.18;2.60;;;;;;;;;;4942509;28;20035;-74
2021/08/10 08:29:02;;;;;;;7.95;2.78;;;;;;;;;;4932498;29;20087;-76
2021/08/10 08:31:28;;;;;;;5.50;2.63;;;;;;;;;;4932855;29;20039;-77
2021/08/10 08:33:55;;;;;;;8.10;3.10;;;;;;;;;;4957460;28;20043;-77
2021/08/10 08:36:21;;;;;;;4.38;2.70;;;;;;;;;;4953298;28;20094;-77
2021/08/10 08:38:48;;;;;;;5.72;2.83;;;;;;;;;;4940558;28;20051;-77
2021/08/10 08:41:15;;;;;;;5.40;2.85;;;;;;;;;;4942225;28;20063;-77
2021/08/10 08:43:41;;;;;;;6.38;3.10;;;;;;;;;;4933182;29;20039;-77
2021/08/10 08:46:08;;;;;;;6.03;3.20;;;;;;;;;;4938803;28;20055;-76
2021/08/10 08:48:34;;;;;;;5.75;2.85;;;;;;;;;;4946166;28;20056;-77
2021/08/10 08:51:01;;;;;;;7.90;3.25;;;;;;;;;;4936867;28;20065;-77
2021/08/10 08:53:28;;;;;;;5.50;2.80;;;;;;;;;;4919996;29;20150;-77
2021/08/10 08:55:55;;;;;;;4.25;2.60;;;;;;;;;;4935385;29;20059;-76
2021/08/10 08:58:21;;;;;;;7.85;2.83;;;;;;;;;;4931382;28;20503;-77
2021/08/10 09:00:48;;;;;;;8.43;3.13;;;;;;;;;;4936169;28;20071;-76
2021/08/10 09:03:14;;;;;;;8.25;2.80;;;;;;;;;;4938566;28;20121;-76
2021/08/10 09:05:44;;;;;;;5.88;2.80;;;;;;;;;;4916967;29;20126;-76
2021/08/10 09:08:30;;;;;;;5.13;3.10;;;;;;;;;;4924149;29;20063;-76
2021/08/10 09:10:58;;;;;;;6.55;2.95;;;;;;;;;;4934800;29;20669;-76
2021/08/10 09:13:24;;;;;;;4.82;2.72;;;;;;;;;;4940959;28;20075;-77
2021/08/10 09:15:51;;;;;;;8.10;3.35;;;;;;;;;;4930303;28;20742;-76
2021/08/10 09:18:21;;;;;;;7.93;3.60;;;;;;;;;;4931998;28;20768;-77
2021/08/10 09:21:03;;;;;;;7.47;2.50;;;;;;;;;;4937225;28;20071;-77
2021/08/10 09:23:29;;;;;;;;;;;;;;;;;;4946159;28;20071;-78
2021/08/10 09:25:56;;;;;;;5.07;3.00;;;;;;;;;;4940555;28;19950;-77
2021/08/10 09:28:31;;;;;;;6.65;2.85;;;;;;;;;;4932883;29;20079;-77
2021/08/10 09:31:17;;;;;;;7.30;3.17;;;;;;;;;;4944181;28;20107;-77
2021/08/10 09:33:44;;;;;;;7.55;3.08;;;;;;;;;;4939387;28;20070;-77
2021/08/10 09:36:20;;;;;;;6.45;2.88;;;;;;;;;;4943668;28;20055;-77
2021/08/10 09:38:47;;;;;;;6.43;2.83;;;;;;;;;;4943314;28;20063;-77
2021/08/10 09:41:17;;;;;;;6.47;2.85;;;;;;;;;;4924913;29;20055;-77
2021/08/10 09:43:44;;;;;;;9.68;3.53;;;;;;;;;;4944569;28;20070;-77
2021/08/10 09:46:14;;;;;;;5.95;3.20;;;;;;;;;;4944580;28;20039;-79
2021/08/10 09:48:52;;;;;;;4.97;2.83;;;;;;;;;;4924223;28;20102;-79
2021/08/10 09:51:21;;;;;;;10.07;2.92;;;;;;;;;;4939963;29;20234;-78
2021/08/10 09:53:58;;;;;;;9.38;2.53;;;;;;;;;;4941305;29;20665;-77
2021/08/10 09:56:40;;;;;;;5.90;2.50;;;;;;;;;;4935074;28;20146;-77
2021/08/10 09:59:06;;;;;;;6.10;2.50;;;;;;;;;;4919533;29;20063;-77
2021/08/10 10:01:34;;;;;;;7.20;2.22;;;;;;;;;;4937165;28;20055;-78
2021/08/10 10:04:16;;;;;;;5.50;2.72;;;;;;;;;;4940072;28;20445;-78
2021/08/10 10:06:42;;;;;;;5.07;2.15;;;;;;;;;;4941128;28;20063;-79
2021/08/10 10:09:09;;;;;;;6.20;2.63;;;;;;;;;;4943216;28;20071;-77
2021/08/10 10:11:37;;;;;;;6.50;2.60;;;;;;;;;;4932117;29;20066;-77
2021/08/10 10:14:04;;;;;;;6.38;2.53;;;;;;;;;;4936104;28;20100;-78
2021/08/10 10:16:31;;;;;;;5.55;2.20;;;;;;;;;;4938389;28;20642;-78
2021/08/10 10:19:02;;;;;;;5.40;2.20;;;;;;;;;;4937271;29;20145;-79
2021/08/10 10:21:30;;;;;;;5.20;2.55;;;;;;;;;;4930359;29;20122;-78
2021/08/10 10:23:57;;;;;;;8.20;2.47;;;;;;;;;;4940048;29;20445;-78
2021/08/10 10:26:24;;;;;;;5.88;2.80;;;;;;;;;;4939033;29;20066;-78
2021/08/10 10:28:51;;;;;;;9.52;2.90;;;;;;;;;;4937686;28;20082;-79
2021/08/10 10:31:17;;;;;;;5.55;2.47;;;;;;;;;;4939697;28;20511;-78
2021/08/10 10:33:45;;;;;;;6.20;2.50;;;;;;;;;;4938620;28;20039;-79
2021/08/10 10:36:12;;;;;;;5.78;2.50;;;;;;;;;;4936185;28;20331;-78
2021/08/10 10:38:41;;;;;;;5.35;2.00;;;;;;;;;;4945550;29;20083;-78
2021/08/10 10:41:09;;;;;;;4.57;2.20;;;;;;;;;;4942340;28;20071;-78
2021/08/10 10:43:36;;;;;;;3.95;2.10;;;;;;;;;;4945641;28;20071;-79
2021/08/10 10:46:21;;;;;;;5.60;2.30;;;;;;;;;;4944863;28;20471;-78
2021/08/10 10:48:47;;;;;;;6.43;2.60;;;;;;;;;;4939774;28;20142;-78
2021/08/10 10:51:16;;;;;;;6.15;2.28;;;;;;;;;;4935441;29;20705;-77
2021/08/10 10:53:46;;;;;;;4.72;2.47;;;;;;;;;;4940030;28;20199;-77
2021/08/10 10:56:28;;;;;;;7.18;2.72;;;;;;;;;;4937647;28;20051;-78
2021/08/10 10:58:55;;;;;;;7.10;2.80;;;;;;;;;;4939238;29;20067;-78
2021/08/10 11:01:29;;;;;;;6.85;2.60;;;;;;;;;;4940005;28;20064;-77
2021/08/10 11:04:16;;;;;;;6.95;2.85;;;;;;;;;;4937259;28;20055;-76
2021/08/10 11:06:46;;;;;;;5.88;2.65;;;;;;;;;;4938855;28;20071;-77
2021/08/10 11:09:31;;;;;;;9.07;3.00;;;;;;;;;;4942793;28;20062;-77
2021/08/10 11:11:58;;;;;;;8.05;2.60;;;;;;;;;;4919293;28;21103;-78
2021/08/10 11:14:39;;;;;;;6.15;2.80;;;;;;;;;;4941931;28;20083;-78
2021/08/10 11:17:06;;;;;;;;;;;;;;;;;;4932824;28;22377;-77
2021/08/10 11:19:32;;;;;;;6.78;2.63;;;;;;;;;;4940762;28;19961;-77
2021/08/10 11:22:17;;;;;;;5.78;2.67;;;;;;;;;;4949546;28;20047;-77
2021/08/10 11:24:45;;;;;;;7.43;2.75;;;;;;;;;;4940320;28;20103;-78
2021/08/10 11:27:30;;;;;;;5.28;2.72;;;;;;;;;;4938769;28;20063;-77
2021/08/10 11:29:56;;;;;;;11.93;2.83;;;;;;;;;;4935632;28;20108;-77
2021/08/10 11:32:35;;;;;;;6.18;2.55;;;;;;;;;;4941667;29;20140;-78
2021/08/10 11:35:20;;;;;;;8.13;2.83;;;;;;;;;;4938133;28;20574;-77
2021/08/10 11:38:05;;;;;;;6.75;1.90;;;;;;;;;;4941778;28;20122;-76
2021/08/10 11:40:36;;;;;;;4.47;2.30;;;;;;;;;;4937523;29;20071;-77
2021/08/10 11:43:03;;;;;;;4.28;1.85;;;;;;;;;;4933389;29;20063;-77
2021/08/10 11:45:37;;;;;;;3.30;1.63;;;;;;;;;;4936332;28;20087;-77
2021/08/10 11:48:03;;;;;;;3.88;1.65;;;;;;;;;;4934180;28;20070;-77
2021/08/10 11:50:31;;;;;;;6.03;2.13;;;;;;;;;;4938565;28;20125;-77
2021/08/10 11:52:57;;;;;;;2.65;1.65;;;;;;;;;;4938238;29;20125;-77
2021/08/10 11:55:34;;;;;;;3.95;1.67;;;;;;;;;;4937959;29;20063;-77
2021/08/10 11:58:05;;;;;;;3.33;1.58;;;;;;;;;;4937514;29;20133;-77
2021/08/10 12:00:32;;;;;;;4.68;1.80;;;;;;;;;;4936719;29;20067;-78
2021/08/10 12:02:59;;;;;;;4.30;1.45;;;;;;;;;;4941779;29;20490;-77
2021/08/10 12:05:26;;;;;;;3.38;1.70;;;;;;;;;;4940516;28;20071;-77
2021/08/10 12:08:01;;;;;;;4.55;1.85;;;;;;;;;;4937101;29;20058;-76
2021/08/10 12:10:30;;;;;;;6.70;1.88;;;;;;;;;;4940224;28;20499;-76
2021/08/10 12:12:58;;;;;;;3.15;1.50;;;;;;;;;;4933640;28;20118;-76
2021/08/10 12:15:39;;;;;;;4.32;2.03;;;;;;;;;;4938157;28;20063;-76
2021/08/10 12:18:06;;;;;;;;;;;;;;;;;;4941139;28;20083;-76
2021/08/10 12:20:32;;;;;;;4.03;1.77;;;;;;;;;;4945286;29;19945;-76
2021/08/10 12:23:03;;;;;;;3.00;1.63;;;;;;;;;;4936897;28;20087;-77
2021/08/10 12:25:30;;;;;;;3.53;1.42;;;;;;;;;;4927683;29;20137;-77
2021/08/10 12:28:06;;;;;;;3.47;1.30;;;;;;;;;;4927300;29;20123;-76
2021/08/10 12:30:33;;;;;;;5.68;2.70;;;;;;;;;;4943712;28;20087;-78
2021/08/10 12:33:12;;;;;;;4.80;2.17;;;;;;;;;;4930871;29;20063;-77
2021/08/10 12:35:39;;;;;;;4.25;2.00;;;;;;;;;;4936648;29;20504;-77
2021/08/10 12:38:08;;;;;;;5.10;1.95;;;;;;;;;;4924818;29;20095;-76
2021/08/10 12:40:35;;;;;;;3.92;1.95;;;;;;;;;;4939460;29;20070;-77
2021/08/10 12:43:01;;;;;;;5.47;1.88;;;;;;;;;;4931349;28;20052;-77
2021/08/10 12:45:31;;;;;;;4.82;2.17;;;;;;;;;;4937694;29;20055;-78
2021/08/10 12:47:58;;;;;;;4.28;1.90;;;;;;;;;;4933376;29;20102;-78
2021/08/10 12:50:25;;;;;;;3.67;2.00;;;;;;;;;;4931326;29;20063;-77
2021/08/10 12:52:51;;;;;;;5.13;2.20;;;;;;;;;;4936062;29;20130;-78
2021/08/10 12:55:18;;;;;;;3.63;2.22;;;;;;;;;;4942671;28;20109;-77
2021/08/10 12:57:46;;;;;;;4.03;2.10;;;;;;;;;;4935631;29;20105;-77
2021/08/10 13:00:21;;;;;;;4.15;1.80;;;;;;;;;;4936739;28;21502;-78
2021/08/10 13:02:48;;;;;;;4.40;1.90;;;;;;;;;;4934030;28;20707;-77
2021/08/10 13:05:16;;;;;;;4.72;1.80;;;;;;;;;;4924981;29;20107;-77
2021/08/10 13:07:43;;;;;;;3.25;1.85;;;;;;;;;;4932892;29;20107;-76
2021/08/10 13:10:11;;;;;;;4.07;1.88;;;;;;;;;;4935399;29;20059;-75
2021/08/10 13:12:56;;;;;;;4.25;2.30;;;;;;;;;;4940967;29;20070;-77
2021/08/10 13:15:23;;;;;;;3.88;1.90;;;;;;;;;;4940265;29;20502;-77
2021/08/10 13:17:50;;;;;;;3.83;2.10;;;;;;;;;;4934738;28;20067;-78
2021/08/10 13:20:24;;;;;;;4.57;2.17;;;;;;;;;;4932926;29;20105;-78
2021/08/10 13:22:52;;;;;;;5.25;2.10;;;;;;;;;;4921893;29;20075;-76
2021/08/10 13:25:28;;;;;;;3.95;1.92;;;;;;;;;;4936370;28;20043;-78
2021/08/10 13:28:14;;;;;;;3.58;1.80;;;;;;;;;;4933924;29;20116;-78
2021/08/10 13:30:41;;;;;;;5.90;2.00;;;;;;;;;;4936924;28;20138;-78
2021/08/10 13:33:21;;;;;;;4.38;1.75;;;;;;;;;;4917235;29;20564;-77
2021/08/10 13:35:48;;;;;;;3.72;1.90;;;;;;;;;;4939724;28;20059;-75
2021/08/10 13:38:15;;;;;;;3.90;1.80;;;;;;;;;;4933597;28;20118;-76
2021/08/10 13:40:42;;;;;;;3.63;2.00;;;;;;;;;;4939769;28;20067;-76
2021/08/10 13:43:08;;;;;;;3.40;2.00;;;;;;;;;;4936312;29;20151;-78
2021/08/10 13:45:36;;;;;;;4.78;1.90;;;;;;;;;;4940281;29;20063;-77
2021/08/10 13:48:03;;;;;;;2.90;1.77;;;;;;;;;;4934193;28;20098;-78
2021/08/10 13:50:29;;;;;;;3.22;1.90;;;;;;;;;;4943744;28;20484;-77
2021/08/10 13:52:55;;;;;;;4.85;2.40;;;;;;;;;;4944720;28;20091;-77
2021/08/10 13:55:22;;;;;;;4.95;2.10;;;;;;;;;;4942105;28;20044;-77
2021/08/10 13:57:48;;;;;;;4.20;2.20;;;;;;;;;;4925463;29;20122;-76
2021/08/10 14:00:15;;;;;;;2.90;1.90;;;;;;;;;;4944319;28;20059;-76
2021/08/10 14:02:43;;;;;;;4.35;2.35;;;;;;;;;;4930431;29;20713;-76
2021/08/10 14:05:13;;;;;;;3.58;2.00;;;;;;;;;;4931217;29;20109;-77
2021/08/10 14:07:40;;;;;;;2.88;1.60;;;;;;;;;;4938687;28;20499;-77
2021/08/10 14:10:10;;;;;;;2.65;1.60;;;;;;;;;;4938251;28;20099;-76
2021/08/10 14:12:36;;;;;;;2.92;1.80;;;;;;;;;;4943382;28;20078;-76
2021/08/10 14:15:07;;;;;;;3.88;2.17;;;;;;;;;;4937930;28;20075;-74
2021/08/10 14:17:33;;;;;;;3.90;2.00;;;;;;;;;;4931615;29;20063;-76
2021/08/10 14:20:00;;;;;;;3.42;1.85;;;;;;;;;;4939732;28;20059;-76
2021/08/10 14:22:27;;;;;;;3.83;2.10;;;;;;;;;;4937679;28;20066;-75
2021/08/10 14:24:54;;;;;;;3.78;1.83;;;;;;;;;;4941477;28;20602;-76
2021/08/10 14:27:20;;;;;;;2.88;1.70;;;;;;;;;;4945547;28;20071;-76
2021/08/10 14:29:47;;;;;;;4.70;2.17;;;;;;;;;;4935768;29;20031;-76
2021/08/10 14:32:13;;;;;;;6.10;2.22;;;;;;;;;;4938626;28;20054;-78
2021/08/10 14:34:40;;;;;;;3.58;1.80;;;;;;;;;;4937501;28;20155;-77
2021/08/10 14:37:09;;;;;;;3.85;1.77;;;;;;;;;;4934564;28;20063;-77
2021/08/10 14:39:36;;;;;;;3.90;1.77;;;;;;;;;;4943571;29;20073;-77
2021/08/10 14:42:02;;;;;;;3.60;1.73;;;;;;;;;;4942636;28;20114;-78
2021/08/10 14:44:29;;;;;;;3.70;2.05;;;;;;;;;;4926982;29;20847;-78
2021/08/10 14:46:55;;;;;;;3.60;2.17;;;;;;;;;;4939448;28;20070;-76
2021/08/10 14:49:22;;;;;;;4.93;2.38;;;;;;;;;;4936457;28;20070;-78
2021/08/10 14:51:48;;;;;;;5.47;2.42;;;;;;;;;;4933177;28;20475;-77